^^
Saratoga-Weather Station Historical Data
Daily Summary for February 16, 2021 Units:  Metric    English   Both
Daily Weekly Monthly Yearly Custom
  High: Low: Average:
Temperature: 22.9 °C 17.4 °C 19.3 °C
Dew Point: 16.4 °C 14.9 °C 15.6 °C
Humidity: 86% 67% 79%
Wind Speed: 4.7km/h 0km/h 0.7km/h
Wind Gust: 9.7km/h - -
Wind- - South
Pressure: 1015.2 hPa 1013.5 hPa -
Precipitation: 0.0 mm    
Historical Graphs
 
 
Tabular Data for February 16, 2021
Time Temperature Dew Point Pressure Wind Wind Speed Wind Gust Humidity Rainfall Rate (Hourly) solar
00:04 22.8 °C 16.4 °C 1015.2 hPa Calm   4.8 km/h 67% 0.0 mm 0 W/m2
00:09 22.9 °C 16.4 °C 1015.2 hPa NW 3.2 km/h 4.8 km/h 67% 0.0 mm 0 W/m2
00:14 22.8 °C 16.4 °C 1015.2 hPa West 4.7 km/h 9.7 km/h 67% 0.0 mm 0 W/m2
00:19 22.8 °C 16.4 °C 1015.2 hPa Calm   4.8 km/h 67% 0.0 mm 0 W/m2
00:24 22.8 °C 16.4 °C 1015.2 hPa Calm   8 km/h 67% 0.0 mm 0 W/m2
00:29 22.6 °C 16.2 °C 1015.2 hPa Calm   3.2 km/h 67% 0.0 mm 0 W/m2
00:34 22.4 °C 16.4 °C 1015.2 hPa WNW 3.2 km/h 3.2 km/h 69% 0.0 mm 0 W/m2
00:39 22.3 °C 16.3 °C 1015.2 hPa Calm     69% 0.0 mm 0 W/m2
00:44 22.1 °C 16.4 °C 1014.9 hPa WSW 3.2 km/h 4.8 km/h 70% 0.0 mm 0 W/m2
00:49 21.8 °C 16.1 °C 1014.9 hPa WNW 3.2 km/h 4.8 km/h 70% 0.0 mm 0 W/m2
00:54 21.8 °C 16.1 °C 1014.9 hPa WNW 1.4 km/h 3.2 km/h 70% 0.0 mm 0 W/m2
00:59 21.7 °C 16.2 °C 1014.9 hPa WNW 1.4 km/h 3.2 km/h 71% 0.0 mm 0 W/m2
01:04 21.5 °C 16 °C 1014.9 hPa Calm   3.2 km/h 71% 0.0 mm 0 W/m2
01:09 21.3 °C 16 °C 1014.9 hPa WSW 1.4 km/h 3.2 km/h 72% 0.0 mm 0 W/m2
01:14 21.2 °C 15.9 °C 1014.9 hPa WSW 1.4 km/h 3.2 km/h 72% 0.0 mm 0 W/m2
01:19 21.1 °C 16.1 °C 1014.9 hPa SW 1.4 km/h 3.2 km/h 73% 0.0 mm 0 W/m2
01:24 21 °C 16 °C 1014.9 hPa SSW 1.4 km/h 3.2 km/h 73% 0.0 mm 0 W/m2
01:29 20.9 °C 16.1 °C 1014.9 hPa Calm   3.2 km/h 74% 0.0 mm 0 W/m2
01:34 20.8 °C 16 °C 1014.9 hPa Calm   1.6 km/h 74% 0.0 mm 0 W/m2
01:39 20.7 °C 15.9 °C 1014.9 hPa Calm   3.2 km/h 74% 0.0 mm 0 W/m2
01:44 20.6 °C 16 °C 1014.9 hPa SSW 1.4 km/h 1.6 km/h 75% 0.0 mm 0 W/m2
01:49 20.4 °C 15.8 °C 1014.9 hPa SSW 1.4 km/h 3.2 km/h 75% 0.0 mm 0 W/m2
01:54 20.3 °C 15.9 °C 1014.9 hPa Calm     76% 0.0 mm 0 W/m2
01:59 20.2 °C 15.8 °C 1014.9 hPa Calm   3.2 km/h 76% 0.0 mm 0 W/m2
02:04 20.1 °C 15.7 °C 1014.9 hPa Calm     76% 0.0 mm 0 W/m2
02:09 20.1 °C 15.9 °C 1014.9 hPa South 1.4 km/h 4.8 km/h 77% 0.0 mm 0 W/m2
02:14 20 °C 15.8 °C 1014.6 hPa South 1.4 km/h 1.6 km/h 77% 0.0 mm 0 W/m2
02:19 20 °C 15.8 °C 1014.6 hPa Calm   4.8 km/h 77% 0.0 mm 0 W/m2
02:24 19.9 °C 15.7 °C 1014.6 hPa Calm     77% 0.0 mm 0 W/m2
02:29 19.8 °C 15.9 °C 1014.6 hPa South 1.4 km/h 3.2 km/h 78% 0.0 mm 0 W/m2
02:34 19.7 °C 15.8 °C 1014.6 hPa Calm     78% 0.0 mm 0 W/m2
02:39 19.6 °C 15.9 °C 1014.6 hPa Calm     79% 0.0 mm 0 W/m2
02:44 19.4 °C 15.7 °C 1014.6 hPa South 1.4 km/h 1.6 km/h 79% 0.0 mm 0 W/m2
02:49 19.4 °C 15.7 °C 1014.6 hPa Calm   3.2 km/h 79% 0.0 mm 0 W/m2
02:54 19.3 °C 15.8 °C 1014.6 hPa Calm     80% 0.0 mm 0 W/m2
02:59 19.3 °C 15.8 °C 1014.6 hPa Calm   1.6 km/h 80% 0.0 mm 0 W/m2
03:04 19.3 °C 15.8 °C 1014.6 hPa South 1.4 km/h 3.2 km/h 80% 0.0 mm 0 W/m2
03:09 19.2 °C 15.7 °C 1014.6 hPa Calm     80% 0.0 mm 0 W/m2
03:14 19.2 °C 15.9 °C 1014.6 hPa Calm   3.2 km/h 81% 0.0 mm 0 W/m2
03:19 19.1 °C 15.8 °C 1014.6 hPa Calm     81% 0.0 mm 0 W/m2
03:24 19 °C 15.7 °C 1014.2 hPa Calm     81% 0.0 mm 0 W/m2
03:29 18.9 °C 15.6 °C 1014.2 hPa Calm   1.6 km/h 81% 0.0 mm 0 W/m2
03:34 18.8 °C 15.5 °C 1014.2 hPa South 1.4 km/h 3.2 km/h 81% 0.0 mm 0 W/m2
03:39 18.8 °C 15.5 °C 1014.2 hPa South 1.4 km/h 1.6 km/h 81% 0.0 mm 0 W/m2
03:44 18.7 °C 15.6 °C 1014.6 hPa Calm     82% 0.0 mm 0 W/m2
03:49 18.7 °C 15.6 °C 1014.2 hPa South 1.4 km/h 1.6 km/h 82% 0.0 mm 0 W/m2
03:54 18.7 °C 15.6 °C 1014.2 hPa Calm   3.2 km/h 82% 0.0 mm 0 W/m2
03:59 18.7 °C 15.6 °C 1014.2 hPa Calm     82% 0.0 mm 0 W/m2
04:05 18.6 °C 15.3 °C 1014.2 hPa Calm   3.2 km/h 81% 0.0 mm 0 W/m2
04:10 18.6 °C 15.5 °C 1014.2 hPa Calm     82% 0.0 mm 0 W/m2
04:15 18.5 °C 15.4 °C 1014.2 hPa Calm   1.6 km/h 82% 0.0 mm 0 W/m2
04:20 18.4 °C 15.3 °C 1014.2 hPa Calm     82% 0.0 mm 0 W/m2
04:25 18.3 °C 15.2 °C 1014.2 hPa Calm     82% 0.0 mm 0 W/m2
04:30 18.2 °C 15.1 °C 1013.9 hPa Calm     82% 0.0 mm 0 W/m2
04:35 18.2 °C 15.1 °C 1013.9 hPa Calm     82% 0.0 mm 0 W/m2
04:40 18.1 °C 15.2 °C 1013.9 hPa Calm     83% 0.0 mm 0 W/m2
04:45 18 °C 15.1 °C 1013.9 hPa Calm     83% 0.0 mm 0 W/m2
04:50 17.9 °C 15.2 °C 1013.9 hPa Calm     84% 0.0 mm 0 W/m2
04:55 17.8 °C 15.1 °C 1013.9 hPa Calm     84% 0.0 mm 0 W/m2
05:00 17.8 °C 15.1 °C 1013.9 hPa Calm     84% 0.0 mm 0 W/m2
05:05 17.8 °C 15.1 °C 1013.9 hPa Calm     84% 0.0 mm 0 W/m2
05:10 17.8 °C 15.1 °C 1013.9 hPa Calm     84% 0.0 mm 0 W/m2
05:15 17.7 °C 15.1 °C 1013.9 hPa Calm     85% 0.0 mm 0 W/m2
05:20 17.7 °C 15.1 °C 1013.9 hPa Calm     85% 0.0 mm 0 W/m2
05:25 17.7 °C 15.1 °C 1013.9 hPa Calm     85% 0.0 mm 0 W/m2
05:30 17.7 °C 15.1 °C 1013.9 hPa Calm     85% 0.0 mm 0 W/m2
05:35 17.6 °C 15 °C 1013.9 hPa Calm     85% 0.0 mm 0 W/m2
05:40 17.6 °C 15 °C 1013.9 hPa Calm     85% 0.0 mm 5 W/m2
05:45 17.5 °C 14.9 °C 1013.9 hPa Calm     85% 0.0 mm 5 W/m2
05:50 17.4 °C 15 °C 1013.9 hPa Calm     86% 0.0 mm 7 W/m2
05:55 17.5 °C 15.1 °C 1013.9 hPa Calm     86% 0.0 mm 9 W/m2
06:00 17.5 °C 15.1 °C 1013.9 hPa Calm     86% 0.0 mm 12 W/m2
06:05 17.5 °C 15.1 °C 1013.9 hPa Calm     86% 0.0 mm 14 W/m2
06:10 17.5 °C 15.1 °C 1013.9 hPa Calm     86% 0.0 mm 16 W/m2
06:15 17.6 °C 15.2 °C 1013.5 hPa Calm     86% 0.0 mm 16 W/m2
06:20 17.6 °C 15.2 °C 1013.5 hPa Calm     86% 0.0 mm 18 W/m2
06:25 17.6 °C 15.2 °C 1013.5 hPa Calm     86% 0.0 mm 19 W/m2
06:30 17.5 °C 15.1 °C 1013.5 hPa Calm     86% 0.0 mm 19 W/m2
06:35 17.6 °C 15.2 °C 1013.5 hPa Calm     86% 0.0 mm 21 W/m2
06:40 17.6 °C 15.2 °C 1013.5 hPa Calm     86% 0.0 mm 25 W/m2
06:45 17.6 °C 15.2 °C 1013.5 hPa Calm     86% 0.0 mm 26 W/m2
06:50 17.7 °C 15.3 °C 1013.5 hPa Calm     86% 0.0 mm 32 W/m2
06:55 17.7 °C 15.3 °C 1013.5 hPa Calm   3.2 km/h 86% 0.0 mm 35 W/m2
07:00 17.8 °C 15.2 °C 1013.5 hPa Calm     85% 0.0 mm 39 W/m2
07:05 17.9 °C 15.2 °C 1013.5 hPa Calm   3.2 km/h 84% 0.0 mm 40 W/m2
07:10 18 °C 15.3 °C 1013.5 hPa Calm   1.6 km/h 84% 0.0 mm 42 W/m2
07:15 18.2 °C 15.3 °C 1013.5 hPa South 1.4 km/h 3.2 km/h 83% 0.0 mm 49 W/m2
07:20 18.3 °C 15.4 °C 1013.5 hPa Calm   3.2 km/h 83% 0.0 mm 53 W/m2
07:25 18.3 °C 15.2 °C 1013.5 hPa SE 3.2 km/h 3.2 km/h 82% 0.0 mm 58 W/m2
07:30 18.4 °C 15.3 °C 1013.5 hPa ESE 3.2 km/h 4.8 km/h 82% 0.0 mm 65 W/m2
07:35 18.5 °C 15.4 °C 1013.5 hPa ESE 1.4 km/h 3.2 km/h 82% 0.0 mm 86 W/m2
07:40 18.6 °C 15.5 °C 1013.5 hPa ESE 3.2 km/h 3.2 km/h 82% 0.0 mm 123 W/m2
07:45 18.7 °C 15.6 °C 1013.5 hPa Calm   3.2 km/h 82% 0.0 mm 135 W/m2
07:50 18.8 °C 15.5 °C 1013.5 hPa SE 1.4 km/h 3.2 km/h 81% 0.0 mm 139 W/m2
07:55 19.1 °C 15.8 °C 1013.5 hPa Calm   1.6 km/h 81% 0.0 mm 146 W/m2
08:00 19.3 °C 15.8 °C 1013.5 hPa Calm   3.2 km/h 80% 0.0 mm 176 W/m2
08:05 19.4 °C 15.7 °C 1013.5 hPa East 1.4 km/h 4.8 km/h 79% 0.0 mm 214 W/m2
08:10 19.7 °C 16 °C 1013.5 hPa East 3.2 km/h 4.8 km/h 79% 0.0 mm 211 W/m2
08:15 19.9 °C 15.9 °C 1013.5 hPa East 1.4 km/h 4.8 km/h 78% 0.0 mm 114 W/m2
08:20 20 °C 15.8 °C 1013.5 hPa Calm   3.2 km/h 77% 0.0 mm 91 W/m2
08:25 20.2 °C 16 °C 1013.5 hPa ESE 1.4 km/h 3.2 km/h 77% 0.0 mm 90 W/m2
08:30 20.4 °C 16.2 °C 1013.5 hPa East 1.4 km/h 3.2 km/h 77% 0.0 mm 88 W/m2
08:35 20.7 °C 16.3 °C 1013.5 hPa East 3.2 km/h 3.2 km/h 76% 0.0 mm 86 W/m2
08:40 20.9 °C 16.3 °C 1013.5 hPa ESE 3.2 km/h 4.8 km/h 75% 0.0 mm 90 W/m2
08:45 21.2 °C 16.2 °C 1013.5 hPa ESE 1.4 km/h 4.8 km/h 73% 0.0 mm 91 W/m2
Juneau County Weather
Compliments of Weather Underground - 4 mb